createdAt,value
2018-03-15T00:06:39.269Z,4.06
2018-03-15T00:07:39.334Z,4.04
2018-03-15T00:08:39.330Z,4.04
2018-03-15T00:10:00.331Z,4.02
2018-03-15T00:10:39.334Z,4.00
2018-03-15T00:11:39.464Z,4.00
2018-03-15T00:12:39.303Z,3.96
2018-03-15T00:13:39.288Z,4.02
2018-03-15T00:14:39.291Z,4.00
2018-03-15T00:16:00.312Z,3.98
2018-03-15T00:16:39.476Z,3.96
2018-03-15T00:17:39.368Z,3.98
2018-03-15T00:18:39.356Z,4.04
2018-03-15T00:19:39.360Z,4.00
2018-03-15T00:20:39.518Z,3.90
2018-03-15T00:22:00.421Z,3.96
2018-03-15T00:22:39.353Z,3.95
2018-03-15T00:23:39.427Z,3.92
2018-03-15T00:24:39.511Z,3.89
2018-03-15T00:25:39.745Z,4.00
2018-03-15T00:26:40.012Z,3.89
2018-03-15T00:28:00.467Z,3.89
2018-03-15T00:28:39.408Z,3.92
2018-03-15T00:29:39.424Z,3.82
2018-03-15T00:30:39.467Z,3.89
2018-03-15T00:31:39.610Z,3.82
2018-03-15T00:32:39.432Z,3.82
2018-03-15T00:34:00.484Z,3.78
2018-03-15T00:34:39.408Z,3.77
2018-03-15T00:35:39.415Z,3.82
2018-03-15T00:36:39.492Z,3.84
2018-03-15T00:37:39.418Z,3.81
2018-03-15T00:38:39.422Z,3.80
2018-03-15T00:40:00.446Z,3.82
2018-03-15T00:40:39.441Z,3.78
2018-03-15T00:41:39.448Z,3.86
2018-03-15T00:42:39.464Z,3.82
2018-03-15T00:43:39.447Z,3.82
2018-03-15T00:44:39.462Z,3.78
2018-03-15T00:46:00.470Z,3.78
2018-03-15T00:46:39.478Z,3.84
2018-03-15T00:47:39.480Z,3.68
2018-03-15T00:48:39.480Z,3.77
2018-03-15T00:49:39.477Z,3.74
2018-03-15T00:50:39.513Z,3.77
2018-03-15T00:52:00.496Z,3.74
2018-03-15T00:52:39.522Z,3.77
2018-03-15T00:53:39.504Z,3.74
2018-03-15T00:54:39.506Z,3.74
2018-03-15T00:55:39.509Z,3.64
2018-03-15T00:56:39.518Z,3.68
2018-03-15T00:58:00.528Z,3.70
2018-03-15T00:58:39.526Z,3.75
2018-03-15T00:59:39.535Z,3.68
2018-03-15T01:00:39.562Z,3.68
2018-03-15T01:01:39.545Z,3.71
2018-03-15T01:02:39.545Z,3.63
2018-03-15T01:04:00.564Z,3.70
2018-03-15T01:04:39.603Z,3.75
2018-03-15T01:05:39.649Z,3.67
2018-03-15T01:06:39.570Z,3.64
2018-03-15T01:07:39.582Z,3.62
2018-03-15T01:08:39.584Z,3.68
2018-03-15T01:10:00.607Z,3.57
2018-03-15T01:10:39.643Z,3.75
2018-03-15T01:11:39.602Z,3.70
2018-03-15T01:12:39.637Z,3.62
2018-03-15T01:13:39.684Z,3.67
2018-03-15T01:14:39.636Z,3.64
2018-03-15T01:16:00.627Z,3.57
2018-03-15T01:16:39.615Z,3.74
2018-03-15T01:17:39.640Z,3.62
2018-03-15T01:18:39.629Z,3.67
2018-03-15T01:19:39.638Z,3.62
2018-03-15T01:20:39.644Z,3.59
2018-03-15T01:22:00.668Z,3.60
2018-03-15T01:22:39.652Z,3.75
2018-03-15T01:23:39.695Z,3.59
2018-03-15T01:24:39.663Z,3.71
2018-03-15T01:25:39.666Z,3.67
2018-03-15T01:26:39.718Z,3.74
2018-03-15T01:28:00.699Z,3.67
2018-03-15T01:28:39.686Z,3.62
2018-03-15T01:29:39.698Z,3.63
2018-03-15T01:30:39.793Z,3.63
2018-03-15T01:33:21.816Z,3.63
2018-03-15T01:34:42.835Z,3.60
2018-03-15T01:35:21.834Z,3.67
2018-03-15T01:36:21.863Z,3.60
2018-03-15T01:37:21.984Z,3.72
2018-03-15T01:38:21.955Z,3.67
2018-03-15T01:39:21.852Z,3.64
2018-03-15T01:40:42.855Z,3.72
2018-03-15T01:41:21.859Z,3.64
2018-03-15T01:45:06.342Z,3.70
2018-03-15T01:46:06.328Z,3.57
2018-03-15T01:47:06.363Z,3.56
2018-03-15T01:48:27.349Z,3.70
2018-03-15T01:49:06.347Z,3.62
2018-03-15T01:50:06.346Z,3.72
2018-03-15T01:52:30.833Z,3.67
2018-03-15T01:53:30.893Z,3.57
2018-03-15T01:54:51.842Z,3.64
2018-03-15T01:55:30.836Z,3.64
2018-03-15T01:56:30.895Z,3.60
2018-03-15T01:57:30.843Z,3.67
2018-03-15T01:58:30.855Z,3.68
2018-03-15T01:59:30.853Z,3.72
2018-03-15T02:00:51.874Z,3.68
2018-03-15T02:01:30.868Z,3.60
2018-03-15T02:02:30.867Z,3.60
2018-03-15T02:03:30.886Z,3.63
2018-03-15T02:04:30.886Z,3.60
2018-03-15T02:05:30.936Z,3.75
2018-03-15T02:06:51.895Z,3.60
2018-03-15T02:07:30.891Z,3.62
2018-03-15T02:08:30.896Z,3.62
2018-03-15T02:09:30.903Z,3.71
2018-03-15T02:10:30.949Z,3.71
2018-03-15T02:11:30.975Z,3.78
2018-03-15T02:12:52.911Z,3.59
2018-03-15T02:13:30.924Z,3.64
2018-03-15T02:14:30.950Z,3.59
2018-03-15T02:15:30.936Z,3.60
2018-03-15T02:16:30.964Z,3.60
2018-03-15T02:17:30.941Z,3.63
2018-03-15T02:18:51.956Z,3.63
2018-03-15T02:19:30.952Z,3.74
2018-03-15T02:20:30.966Z,3.63
2018-03-15T02:21:30.967Z,3.62
2018-03-15T02:22:30.970Z,3.59
2018-03-15T02:23:30.972Z,3.62
2018-03-15T02:24:51.992Z,3.64
2018-03-15T02:25:30.999Z,3.60
2018-03-15T02:26:30.996Z,3.56
2018-03-15T02:27:30.991Z,3.64
2018-03-15T02:28:31.004Z,3.62
2018-03-15T02:29:30.996Z,3.60
2018-03-15T02:30:52.040Z,3.71
2018-03-15T02:31:31.022Z,3.60
2018-03-15T02:32:31.019Z,3.63
2018-03-15T02:33:31.025Z,3.67
2018-03-15T02:34:31.040Z,3.63
2018-03-15T02:35:31.038Z,3.64
2018-03-15T02:36:52.096Z,3.68
2018-03-15T02:37:31.038Z,3.62
2018-03-15T02:38:31.044Z,3.62
2018-03-15T02:39:31.042Z,3.60
2018-03-15T02:40:31.048Z,3.50
2018-03-15T02:41:31.112Z,3.70
2018-03-15T02:42:52.072Z,3.60
2018-03-15T02:43:31.063Z,3.52
2018-03-15T02:44:31.888Z,3.52
2018-03-15T02:45:31.078Z,3.50
2018-03-15T02:46:31.092Z,3.53
2018-03-15T02:47:31.106Z,3.53
2018-03-15T02:48:52.237Z,3.57
2018-03-15T02:49:31.105Z,3.56
2018-03-15T02:50:31.111Z,3.53
2018-03-15T02:51:31.114Z,3.62
2018-03-15T02:52:31.114Z,3.50
2018-03-15T02:53:31.120Z,3.52
2018-03-15T02:54:52.239Z,3.52
2018-03-15T02:55:31.126Z,3.50
2018-03-15T02:56:31.142Z,3.50
2018-03-15T02:57:31.232Z,3.57
2018-03-15T02:58:31.144Z,3.50
2018-03-15T02:59:31.142Z,3.49
2018-03-15T03:00:52.158Z,3.54
2018-03-15T03:01:31.158Z,3.50
2018-03-15T03:02:31.159Z,3.54
2018-03-15T03:03:31.174Z,3.56
2018-03-15T03:04:31.171Z,3.53
2018-03-15T03:05:31.167Z,3.54
2018-03-15T03:08:34.325Z,3.54
2018-03-15T03:09:34.327Z,3.54
2018-03-15T03:10:34.330Z,3.57
2018-03-15T03:11:34.333Z,3.57
2018-03-15T03:12:34.385Z,3.52
2018-03-15T03:13:55.360Z,3.56
2018-03-15T03:14:34.345Z,3.49
2018-03-15T03:15:34.365Z,3.54
2018-03-15T03:16:34.359Z,3.53
2018-03-15T03:17:34.361Z,3.46
2018-03-15T03:18:34.366Z,3.49
2018-03-15T03:19:55.386Z,3.52
2018-03-15T03:20:34.376Z,3.50
2018-03-15T03:21:34.383Z,3.39
2018-03-15T03:22:34.386Z,3.42
2018-03-15T03:23:34.392Z,3.31
2018-03-15T03:24:34.392Z,3.39
2018-03-15T03:25:55.410Z,3.49
2018-03-15T03:26:34.407Z,3.45
2018-03-15T03:27:34.565Z,3.39
2018-03-15T03:28:34.412Z,3.46
2018-03-15T03:29:34.415Z,3.44
2018-03-15T03:30:34.427Z,3.35
2018-03-15T03:31:56.382Z,3.34
2018-03-15T03:32:34.435Z,3.45
2018-03-15T03:33:34.437Z,3.37
2018-03-15T03:34:34.444Z,3.34
2018-03-15T03:35:34.447Z,3.35
2018-03-15T03:36:34.453Z,3.45
2018-03-15T03:37:55.469Z,3.39
2018-03-15T03:38:34.471Z,3.39
2018-03-15T03:39:34.464Z,3.37
2018-03-15T03:40:34.526Z,3.37
2018-03-15T03:41:34.477Z,3.37
2018-03-15T03:42:34.479Z,3.37
2018-03-15T03:43:55.495Z,3.41
2018-03-15T03:44:34.491Z,3.37
2018-03-15T03:45:34.493Z,3.44
2018-03-15T03:46:34.490Z,3.39
2018-03-15T03:47:34.506Z,3.45
2018-03-15T03:48:34.504Z,3.41
2018-03-15T03:49:55.534Z,3.41
2018-03-15T03:50:34.516Z,3.45
2018-03-15T03:51:34.523Z,3.45
2018-03-15T03:52:34.526Z,3.39
2018-03-15T03:53:34.521Z,3.42
2018-03-15T03:54:34.537Z,3.42
2018-03-15T03:55:55.544Z,3.37
2018-03-15T03:56:34.535Z,3.42
2018-03-15T03:57:34.544Z,3.37
2018-03-15T03:58:34.545Z,3.34
2018-03-15T03:59:34.551Z,3.49
2018-03-15T04:00:34.566Z,3.42
2018-03-15T04:01:55.566Z,3.35
2018-03-15T04:02:34.572Z,3.44
2018-03-15T04:03:34.662Z,3.41
2018-03-15T04:04:34.577Z,3.49
2018-03-15T04:05:34.586Z,3.35
2018-03-15T04:06:34.592Z,3.34
2018-03-15T04:07:55.599Z,3.35
2018-03-15T04:08:34.600Z,3.39
2018-03-15T04:09:34.614Z,3.41
2018-03-15T04:10:34.608Z,3.49
2018-03-15T04:11:34.607Z,3.49
2018-03-15T04:12:34.612Z,3.50
2018-03-15T04:13:55.634Z,3.45
2018-03-15T04:14:34.623Z,3.41
2018-03-15T04:15:34.632Z,3.49
2018-03-15T04:16:34.640Z,3.37
2018-03-15T04:17:34.630Z,3.49
2018-03-15T04:18:34.660Z,3.37
2018-03-15T04:19:55.656Z,3.39
2018-03-15T04:20:34.647Z,3.39
2018-03-15T04:21:34.694Z,3.39
2018-03-15T04:22:34.664Z,3.45
2018-03-15T04:23:34.663Z,3.45
2018-03-15T04:24:34.670Z,3.45
2018-03-15T04:25:55.704Z,3.44
2018-03-15T04:26:34.689Z,3.42
2018-03-15T04:27:34.675Z,3.39
2018-03-15T04:28:34.674Z,3.42
2018-03-15T04:29:34.691Z,3.39
2018-03-15T04:30:34.695Z,3.41
2018-03-15T04:31:55.709Z,3.39
2018-03-15T04:32:34.696Z,3.39
2018-03-15T04:33:34.707Z,3.39
2018-03-15T04:34:34.727Z,3.41
2018-03-15T04:35:34.717Z,3.39
2018-03-15T04:36:34.720Z,3.46
2018-03-15T04:37:55.738Z,3.34
2018-03-15T04:38:34.740Z,3.34
2018-03-15T04:39:34.726Z,3.50
2018-03-15T04:40:34.748Z,3.41
2018-03-15T04:41:34.748Z,3.45
2018-03-15T04:42:34.754Z,3.42
2018-03-15T04:43:55.762Z,3.45
2018-03-15T04:44:34.889Z,3.41
2018-03-15T04:45:34.762Z,3.39
2018-03-15T04:46:34.771Z,3.42
2018-03-15T04:47:34.768Z,3.35
2018-03-15T04:48:34.780Z,3.46
2018-03-15T04:49:55.790Z,3.41
2018-03-15T04:50:34.785Z,3.45
2018-03-15T04:51:34.781Z,3.35
2018-03-15T04:52:34.788Z,3.41
2018-03-15T04:53:34.804Z,3.35
2018-03-15T04:54:34.799Z,3.44
2018-03-15T04:55:55.809Z,3.44
2018-03-15T04:56:34.808Z,3.44
2018-03-15T04:57:34.825Z,3.35
2018-03-15T04:58:34.854Z,3.39
2018-03-15T04:59:34.838Z,3.37
2018-03-15T05:00:34.844Z,3.33
2018-03-15T05:01:55.848Z,3.34
2018-03-15T05:02:34.850Z,3.31
2018-03-15T05:03:34.839Z,3.37
2018-03-15T05:04:34.845Z,3.30
2018-03-15T05:05:34.850Z,3.31
2018-03-15T05:06:34.852Z,3.35
2018-03-15T05:07:55.855Z,3.34
2018-03-15T05:08:34.874Z,3.34
2018-03-15T05:09:34.861Z,3.31
2018-03-15T05:10:34.892Z,3.30
2018-03-15T05:11:34.874Z,3.28
2018-03-15T05:12:34.950Z,3.22
2018-03-15T05:13:55.904Z,3.22
2018-03-15T05:14:34.893Z,3.26
2018-03-15T05:15:34.962Z,3.26
2018-03-15T05:16:34.907Z,3.34
2018-03-15T05:17:34.900Z,3.28
2018-03-15T05:18:34.906Z,3.26
2018-03-15T05:19:55.940Z,3.26
2018-03-15T05:20:34.917Z,3.19
2018-03-15T05:21:34.925Z,3.28
2018-03-15T05:22:34.927Z,3.28
2018-03-15T05:23:34.935Z,3.31
2018-03-15T05:24:34.941Z,3.35
2018-03-15T05:25:55.948Z,3.31
2018-03-15T05:26:34.957Z,3.33
2018-03-15T05:27:34.957Z,3.33
2018-03-15T05:28:34.981Z,3.37
2018-03-15T05:29:34.967Z,3.34
2018-03-15T05:30:34.954Z,3.28
2018-03-15T05:31:55.965Z,3.28
2018-03-15T05:32:34.967Z,3.33
2018-03-15T05:33:34.972Z,3.33
2018-03-15T05:34:34.974Z,3.33
2018-03-15T05:35:34.983Z,3.34
2018-03-15T05:36:34.991Z,3.33
2018-03-15T05:37:56.019Z,3.33
2018-03-15T05:38:35.105Z,3.31
2018-03-15T05:39:35.004Z,3.34
2018-03-15T05:40:34.998Z,3.28
2018-03-15T05:41:35.026Z,3.33
2018-03-15T05:42:35.012Z,3.31
2018-03-15T05:43:56.039Z,3.23
2018-03-15T05:44:35.023Z,3.34
2018-03-15T05:45:35.044Z,3.26
2018-03-15T05:46:35.030Z,3.23
2018-03-15T05:47:35.034Z,3.30
2018-03-15T05:48:35.041Z,3.26
2018-03-15T05:49:56.072Z,3.34
2018-03-15T05:50:35.045Z,3.37
2018-03-15T05:51:35.050Z,3.28
2018-03-15T05:52:35.053Z,3.26
2018-03-15T05:53:35.064Z,3.34
2018-03-15T05:54:35.065Z,3.23
2018-03-15T05:55:56.078Z,3.30
2018-03-15T05:56:35.109Z,3.34
2018-03-15T05:57:35.074Z,3.35
2018-03-15T05:58:35.105Z,3.26
2018-03-15T05:59:35.083Z,3.26
2018-03-15T06:00:35.096Z,3.34
2018-03-15T06:01:56.104Z,3.35
2018-03-15T06:02:35.100Z,3.34
2018-03-15T06:03:35.099Z,3.28
2018-03-15T06:04:35.109Z,3.34
2018-03-15T06:05:35.114Z,3.19
2018-03-15T06:06:35.131Z,3.28
2018-03-15T06:07:56.126Z,3.31
2018-03-15T06:08:35.126Z,3.33
2018-03-15T06:09:35.145Z,3.41
2018-03-15T06:10:35.125Z,3.41
2018-03-15T06:11:35.147Z,3.62
2018-03-15T06:12:35.154Z,3.92
2018-03-15T06:13:56.191Z,4.28
2018-03-15T06:14:35.152Z,4.62
2018-03-15T06:15:35.170Z,4.84
2018-03-15T06:16:35.163Z,5.02
2018-03-15T06:17:35.163Z,4.72
2018-03-15T06:18:35.168Z,4.47
2018-03-15T06:19:56.190Z,4.13
2018-03-15T06:20:35.180Z,4.10
2018-03-15T06:21:35.181Z,3.96
2018-03-15T06:22:35.196Z,3.90
2018-03-15T06:23:35.189Z,3.93
2018-03-15T06:24:35.201Z,3.96
2018-03-15T06:25:56.219Z,4.32
2018-03-15T06:26:35.207Z,4.57
2018-03-15T06:27:35.218Z,4.47
2018-03-15T06:28:35.215Z,4.35
2018-03-15T06:29:35.236Z,4.34
2018-03-15T06:30:35.236Z,4.18
2018-03-15T06:31:56.250Z,4.14
2018-03-15T06:32:35.288Z,4.10
2018-03-15T06:33:35.276Z,4.14
2018-03-15T06:34:35.275Z,4.14
2018-03-15T06:35:35.262Z,4.24
2018-03-15T06:36:35.307Z,4.20
2018-03-15T06:37:56.285Z,4.14
2018-03-15T06:38:35.279Z,4.32
2018-03-15T06:39:35.288Z,4.28
2018-03-15T06:40:35.303Z,4.38
2018-03-15T06:41:35.301Z,4.39
2018-03-15T06:42:35.303Z,4.53
2018-03-15T06:43:56.321Z,4.57
2018-03-15T06:44:35.315Z,4.54
2018-03-15T06:45:35.332Z,4.51
2018-03-15T06:46:35.338Z,4.68
2018-03-15T06:47:35.373Z,4.67
2018-03-15T06:48:35.357Z,4.67
2018-03-15T06:49:56.359Z,4.72
2018-03-15T06:50:35.368Z,4.71
2018-03-15T06:51:35.366Z,4.87
2018-03-15T06:52:35.387Z,4.84
2018-03-15T06:53:35.393Z,4.87
2018-03-15T06:54:35.436Z,4.91
2018-03-15T06:55:56.421Z,4.86
2018-03-15T06:56:35.400Z,4.91
2018-03-15T06:57:35.417Z,4.99
2018-03-15T06:58:35.414Z,5.01
2018-03-15T06:59:35.419Z,5.01
2018-03-15T07:00:35.448Z,5.08
2018-03-15T07:01:56.454Z,5.12
2018-03-15T07:02:35.518Z,5.20
2018-03-15T07:03:35.455Z,5.23
2018-03-15T07:04:35.461Z,5.19
2018-03-15T07:05:35.477Z,5.29
2018-03-15T07:06:35.475Z,5.35
2018-03-15T07:07:56.498Z,5.29
2018-03-15T07:08:35.498Z,5.45
2018-03-15T07:09:35.504Z,5.56
2018-03-15T07:10:35.696Z,5.47
2018-03-15T07:11:35.525Z,5.55
2018-03-15T07:12:35.534Z,5.74
2018-03-15T07:13:56.550Z,5.74
2018-03-15T07:14:35.554Z,5.73
2018-03-15T07:15:35.581Z,5.88
2018-03-15T07:16:35.574Z,6.01
2018-03-15T07:17:35.573Z,6.05
2018-03-15T07:18:35.584Z,5.93
2018-03-15T07:19:56.632Z,5.99
2018-03-15T07:20:35.617Z,6.14
2018-03-15T07:21:35.624Z,6.08
2018-03-15T07:22:35.621Z,6.16
2018-03-15T07:23:35.631Z,6.21
2018-03-15T07:24:35.638Z,6.25
2018-03-15T07:25:56.665Z,6.27
2018-03-15T07:26:35.674Z,6.24
2018-03-15T07:27:35.672Z,6.32
2018-03-15T07:28:35.686Z,6.40
2018-03-15T07:29:35.696Z,6.39
2018-03-15T07:30:35.708Z,6.45
2018-03-15T07:31:56.728Z,6.65
2018-03-15T07:32:35.809Z,6.55
2018-03-15T07:33:35.730Z,6.51
2018-03-15T07:34:35.747Z,6.64
2018-03-15T07:35:35.754Z,6.68
2018-03-15T07:36:35.775Z,6.61
2018-03-15T07:37:56.809Z,6.71
2018-03-15T07:38:35.788Z,6.86
2018-03-15T07:39:35.817Z,6.97
2018-03-15T07:40:35.825Z,6.89
2018-03-15T07:41:35.809Z,7.00
2018-03-15T07:42:35.826Z,6.94
2018-03-15T07:43:56.869Z,7.05
2018-03-15T07:44:35.867Z,7.08
2018-03-15T07:45:35.862Z,7.09
2018-03-15T07:46:35.919Z,7.14
2018-03-15T07:47:35.884Z,7.08
2018-03-15T07:48:35.929Z,7.11
2018-03-15T07:49:56.939Z,7.21
2018-03-15T07:50:35.914Z,7.15
2018-03-15T07:51:35.928Z,7.24
2018-03-15T07:52:35.945Z,7.41
2018-03-15T07:53:35.942Z,7.41
2018-03-15T07:54:35.968Z,7.52
2018-03-15T07:55:57.048Z,7.58
2018-03-15T07:56:35.974Z,7.70
2018-03-15T07:57:36.000Z,7.66
2018-03-15T07:58:36.074Z,7.69
2018-03-15T07:59:36.008Z,7.63
2018-03-15T08:00:36.038Z,7.69
2018-03-15T08:01:57.060Z,7.81
2018-03-15T08:02:36.044Z,7.88
2018-03-15T08:03:36.078Z,7.91
2018-03-15T08:04:36.072Z,7.89
2018-03-15T08:05:36.106Z,7.92
2018-03-15T08:06:36.232Z,8.09
2018-03-15T08:07:57.236Z,8.21
2018-03-15T08:08:36.122Z,8.04
2018-03-15T08:09:36.131Z,8.20
2018-03-15T08:10:36.202Z,8.31
2018-03-15T08:11:36.189Z,8.31
2018-03-15T08:12:36.169Z,8.32
2018-03-15T08:13:57.223Z,8.40
2018-03-15T08:14:36.305Z,8.64
2018-03-15T08:15:36.244Z,8.75
2018-03-15T08:16:36.312Z,8.86
2018-03-15T08:17:36.255Z,8.85
2018-03-15T08:18:36.981Z,8.85
2018-03-15T08:19:57.439Z,9.00
2018-03-15T08:20:36.480Z,9.23
2018-03-15T08:21:36.356Z,9.52
2018-03-15T08:22:36.339Z,9.65
2018-03-15T08:23:36.329Z,9.74
2018-03-15T08:24:36.588Z,9.89
2018-03-15T08:25:57.402Z,10.13
2018-03-15T08:26:36.404Z,10.25
2018-03-15T08:27:36.528Z,10.38
2018-03-15T08:28:36.404Z,10.39
2018-03-15T08:29:36.475Z,10.25
2018-03-15T08:30:36.409Z,10.49
2018-03-15T08:31:57.450Z,10.78
2018-03-15T08:32:36.457Z,10.95
2018-03-15T08:33:36.469Z,10.84
2018-03-15T08:34:36.501Z,11.03
2018-03-15T08:35:36.538Z,10.84
2018-03-15T08:36:36.548Z,10.49
2018-03-15T08:37:57.740Z,10.16
2018-03-15T08:38:36.569Z,9.99
2018-03-15T08:39:36.600Z,9.93
2018-03-15T08:40:36.728Z,10.29
2018-03-15T08:41:36.618Z,10.25
2018-03-15T08:42:36.632Z,10.13
2018-03-15T08:43:57.678Z,10.24
2018-03-15T08:44:36.701Z,10.36
2018-03-15T08:45:36.654Z,10.51
2018-03-15T08:46:36.655Z,10.68
2018-03-15T08:47:36.688Z,10.54
2018-03-15T08:48:36.668Z,10.31
2018-03-15T08:49:57.722Z,10.26
2018-03-15T08:50:36.712Z,10.60
2018-03-15T08:51:36.703Z,10.72
2018-03-15T08:52:36.718Z,10.63
2018-03-15T08:53:36.821Z,10.72
2018-03-15T08:54:36.737Z,10.73
2018-03-15T08:55:57.807Z,10.62
2018-03-15T08:56:36.864Z,10.87
2018-03-15T08:57:36.813Z,10.78
2018-03-15T08:58:36.792Z,10.94
2018-03-15T08:59:36.830Z,11.11
2018-03-15T09:00:36.907Z,11.28
2018-03-15T09:01:57.908Z,11.44
2018-03-15T09:02:37.121Z,11.20
2018-03-15T09:03:36.885Z,11.31
2018-03-15T09:04:37.164Z,11.21
2018-03-15T09:05:36.916Z,10.95
2018-03-15T09:06:36.908Z,10.95
2018-03-15T09:07:58.001Z,11.05
2018-03-15T09:08:37.294Z,11.13
2018-03-15T09:09:36.991Z,11.27
2018-03-15T09:10:37.019Z,11.44
2018-03-15T09:11:37.064Z,11.72
2018-03-15T09:12:37.036Z,11.74
2018-03-15T09:13:58.018Z,11.84
2018-03-15T09:14:37.061Z,11.90
2018-03-15T09:15:37.089Z,12.07
2018-03-15T09:16:37.062Z,12.15
2018-03-15T09:17:37.198Z,12.26
2018-03-15T09:18:37.131Z,12.29
2018-03-15T09:19:58.170Z,12.56
2018-03-15T09:20:37.130Z,12.66
2018-03-15T09:21:37.214Z,12.80
2018-03-15T09:22:37.175Z,12.77
2018-03-15T09:23:37.281Z,12.70
2018-03-15T09:24:37.234Z,12.63
2018-03-15T09:25:58.260Z,12.73
2018-03-15T09:26:37.213Z,12.76
2018-03-15T09:27:37.259Z,12.88
2018-03-15T09:28:37.393Z,12.80
2018-03-15T09:29:37.300Z,12.98
2018-03-15T09:30:37.465Z,12.58
2018-03-15T09:31:58.432Z,12.80
2018-03-15T09:32:37.306Z,12.99
2018-03-15T09:33:37.374Z,12.94
2018-03-15T09:34:37.414Z,12.74
2018-03-15T09:35:37.356Z,12.91
2018-03-15T09:36:37.413Z,13.25
2018-03-15T09:37:58.392Z,13.38
2018-03-15T09:38:37.558Z,13.53
2018-03-15T09:39:37.426Z,13.22
2018-03-15T09:40:37.449Z,13.27
2018-03-15T09:41:37.516Z,13.51
2018-03-15T09:42:37.450Z,13.55
2018-03-15T09:43:58.673Z,13.55
2018-03-15T09:44:37.488Z,13.71
2018-03-15T09:45:37.512Z,13.86
2018-03-15T09:46:37.653Z,14.23
2018-03-15T09:47:37.552Z,14.35
2018-03-15T09:48:37.683Z,14.36
2018-03-15T09:49:58.587Z,14.49
2018-03-15T09:50:37.592Z,14.44
2018-03-15T09:51:37.639Z,13.93
2018-03-15T09:52:37.620Z,14.29
2018-03-15T09:53:37.645Z,14.38
2018-03-15T09:54:37.723Z,14.59
2018-03-15T09:55:58.853Z,14.66
2018-03-15T09:56:37.749Z,14.91
2018-03-15T09:57:37.700Z,15.16
2018-03-15T09:58:37.722Z,15.31
2018-03-15T09:59:37.789Z,15.55
2018-03-15T10:00:37.757Z,15.64
2018-03-15T10:01:59.015Z,15.48
2018-03-15T10:02:37.849Z,15.44
2018-03-15T10:03:37.860Z,15.38
2018-03-15T10:04:37.848Z,15.48
2018-03-15T10:05:37.888Z,15.15
2018-03-15T10:06:37.873Z,14.86
2018-03-15T10:07:58.873Z,14.86
2018-03-15T10:08:37.943Z,15.20
2018-03-15T10:09:37.880Z,15.31
2018-03-15T10:10:37.929Z,15.30
2018-03-15T10:11:37.976Z,15.52
2018-03-15T10:12:37.973Z,15.78
2018-03-15T10:13:58.957Z,15.78
2018-03-15T10:14:38.048Z,15.95
2018-03-15T10:15:37.997Z,15.77
2018-03-15T10:16:38.036Z,15.40
2018-03-15T10:17:38.038Z,15.22
2018-03-15T10:18:38.077Z,14.97
2018-03-15T10:19:59.125Z,14.41
2018-03-15T10:20:38.136Z,14.95
2018-03-15T10:21:38.088Z,15.18
2018-03-15T10:22:38.108Z,15.49
2018-03-15T10:23:38.249Z,15.59
2018-03-15T10:24:38.179Z,15.78
2018-03-15T10:25:59.264Z,15.71
2018-03-15T10:26:38.147Z,15.71
2018-03-15T10:27:38.189Z,15.81
2018-03-15T10:28:38.250Z,15.86
2018-03-15T10:29:38.305Z,16.45
2018-03-15T10:30:38.276Z,16.77
2018-03-15T10:31:59.290Z,16.90
2018-03-15T10:32:38.243Z,17.07
2018-03-15T10:33:38.338Z,17.28
2018-03-15T10:34:38.356Z,17.63
2018-03-15T10:35:38.356Z,17.35
2018-03-15T10:36:38.417Z,17.36
2018-03-15T10:37:59.394Z,17.03
2018-03-15T10:38:38.385Z,16.62
2018-03-15T10:39:38.350Z,16.52
2018-03-15T10:40:38.526Z,16.14
2018-03-15T10:41:38.402Z,16.03
2018-03-15T10:42:38.407Z,15.93
2018-03-15T10:43:59.488Z,15.98
2018-03-15T10:44:38.494Z,16.01
2018-03-15T10:45:38.513Z,16.40
2018-03-15T10:46:38.536Z,16.77
2018-03-15T10:47:38.509Z,17.28
2018-03-15T10:48:38.548Z,17.36
2018-03-15T10:49:59.644Z,16.99
2018-03-15T10:50:38.541Z,16.82
2018-03-15T10:51:38.550Z,16.65
2018-03-15T10:52:38.633Z,16.77
2018-03-15T10:53:38.631Z,17.00
2018-03-15T10:54:38.786Z,17.18
2018-03-15T10:55:59.643Z,17.18
2018-03-15T10:56:38.680Z,17.24
2018-03-15T10:57:38.685Z,16.99
2018-03-15T10:58:38.724Z,17.25
2018-03-15T10:59:38.766Z,17.02
2018-03-15T11:00:38.829Z,17.21
2018-03-15T11:01:59.788Z,17.17
2018-03-15T11:02:38.735Z,17.46
2018-03-15T11:03:38.819Z,17.53
2018-03-15T11:04:38.883Z,17.84
2018-03-15T11:05:38.906Z,17.77
2018-03-15T11:06:38.863Z,17.38
2018-03-15T11:07:59.854Z,17.74
2018-03-15T11:08:38.856Z,17.68
2018-03-15T11:09:38.847Z,17.36
2018-03-15T11:10:38.870Z,17.24
2018-03-15T11:11:38.924Z,17.06
2018-03-15T11:12:38.971Z,17.12
2018-03-15T11:13:59.949Z,17.30
2018-03-15T11:14:38.996Z,17.55
2018-03-15T11:15:39.043Z,17.70
2018-03-15T11:16:38.994Z,17.81
2018-03-15T11:17:39.058Z,18.02
2018-03-15T11:18:39.138Z,18.23
2018-03-15T11:20:00.184Z,17.84
2018-03-15T11:20:39.058Z,17.94
2018-03-15T11:21:39.060Z,17.71
2018-03-15T11:22:39.086Z,17.55
2018-03-15T11:23:39.093Z,17.98
2018-03-15T11:24:39.097Z,18.20
2018-03-15T11:26:00.261Z,18.16
2018-03-15T11:26:39.126Z,18.31
2018-03-15T11:27:39.279Z,18.20
2018-03-15T11:28:39.320Z,18.29
2018-03-15T11:29:39.301Z,18.44
2018-03-15T11:30:39.190Z,18.09
2018-03-15T11:32:00.245Z,18.16
2018-03-15T11:32:39.627Z,18.25
2018-03-15T11:33:39.443Z,18.35
2018-03-15T11:34:39.366Z,18.66
2018-03-15T11:35:39.380Z,18.65
2018-03-15T11:36:39.536Z,18.78
2018-03-15T11:38:00.370Z,18.51
2018-03-15T11:38:39.464Z,18.35
2018-03-15T11:39:39.716Z,18.54
2018-03-15T11:40:39.391Z,18.66
2018-03-15T11:41:39.361Z,17.86
2018-03-15T11:42:39.800Z,18.01
2018-03-15T11:44:00.408Z,18.28
2018-03-15T11:44:39.606Z,18.46
2018-03-15T11:45:39.483Z,18.44
2018-03-15T11:46:39.756Z,18.35
2018-03-15T11:47:39.643Z,18.28
2018-03-15T11:48:39.604Z,18.20
2018-03-15T11:50:00.640Z,18.41
2018-03-15T11:50:39.599Z,18.72
2018-03-15T11:51:39.606Z,19.09
2018-03-15T11:52:39.561Z,18.86
2018-03-15T11:53:39.613Z,18.68
2018-03-15T11:54:39.984Z,18.50
2018-03-15T11:56:00.642Z,18.74
2018-03-15T11:56:39.774Z,18.50
2018-03-15T11:57:40.049Z,19.09
2018-03-15T11:58:39.630Z,19.47
2018-03-15T11:59:39.709Z,19.07
2018-03-15T12:00:39.762Z,19.25
2018-03-15T12:02:00.736Z,19.47
2018-03-15T12:02:39.707Z,19.94
2018-03-15T12:03:39.775Z,20.44
2018-03-15T12:04:39.747Z,20.72
2018-03-15T12:05:39.845Z,20.64
2018-03-15T12:06:39.790Z,20.97
2018-03-15T12:08:00.779Z,20.83
2018-03-15T12:08:39.796Z,20.54
2018-03-15T12:09:39.861Z,20.41
2018-03-15T12:10:39.874Z,19.92
2018-03-15T12:11:39.881Z,20.12
2018-03-15T12:12:39.852Z,20.22
2018-03-15T12:14:01.088Z,20.38
2018-03-15T12:14:39.922Z,20.30
2018-03-15T12:15:39.935Z,20.08
2018-03-15T12:16:39.959Z,19.82
2018-03-15T12:17:39.968Z,19.39
2018-03-15T12:18:39.982Z,19.64
2018-03-15T12:20:01.010Z,19.13
2018-03-15T12:20:40.108Z,19.30
2018-03-15T12:21:40.063Z,18.66
2018-03-15T12:22:40.095Z,18.78
2018-03-15T12:23:40.272Z,18.89
2018-03-15T12:24:40.091Z,18.97
2018-03-15T12:26:01.126Z,18.84
2018-03-15T12:26:40.223Z,19.12
2018-03-15T12:27:41.029Z,19.25
2018-03-15T12:28:40.148Z,19.01
2018-03-15T12:29:40.220Z,19.30
2018-03-15T12:30:40.203Z,19.70
2018-03-15T12:32:01.336Z,19.45
2018-03-15T12:32:40.263Z,19.68
2018-03-15T12:33:40.260Z,20.10
2018-03-15T12:34:40.349Z,19.71
2018-03-15T12:35:40.424Z,19.87
2018-03-15T12:36:40.270Z,20.30
2018-03-15T12:38:01.286Z,20.42
2018-03-15T12:38:40.307Z,20.25
2018-03-15T12:39:40.340Z,20.27
2018-03-15T12:40:40.327Z,20.53
2018-03-15T12:41:40.347Z,20.40
2018-03-15T12:42:40.354Z,20.37
2018-03-15T12:44:01.416Z,20.31
2018-03-15T12:44:40.395Z,19.90
2018-03-15T12:45:40.415Z,19.86
2018-03-15T12:46:40.445Z,19.78
2018-03-15T12:47:40.472Z,20.05
2018-03-15T12:48:40.481Z,19.72
2018-03-15T12:50:01.492Z,19.58
2018-03-15T12:50:40.504Z,19.61
2018-03-15T12:51:40.504Z,19.68
2018-03-15T12:52:40.575Z,19.68
2018-03-15T12:53:40.562Z,20.23
2018-03-15T12:54:40.568Z,20.66
2018-03-15T12:57:43.981Z,20.31
2018-03-15T12:58:44.025Z,20.30
2018-03-15T12:59:44.041Z,19.87
2018-03-15T13:00:44.025Z,20.15
2018-03-15T13:01:44.042Z,20.08
2018-03-15T13:03:05.102Z,19.97
2018-03-15T13:03:44.092Z,20.04
2018-03-15T13:04:44.120Z,20.23
2018-03-15T13:05:44.186Z,20.38
2018-03-15T13:06:44.134Z,20.07
2018-03-15T13:07:44.191Z,19.28
2018-03-15T13:09:05.178Z,18.94
2018-03-15T13:09:44.192Z,19.16
2018-03-15T13:10:44.194Z,19.10
2018-03-15T13:11:44.203Z,18.76
2018-03-15T13:12:44.228Z,18.36
2018-03-15T13:13:44.242Z,18.23
2018-03-15T13:15:05.323Z,18.28
2018-03-15T13:15:44.278Z,18.10
2018-03-15T13:16:44.315Z,18.26
2018-03-15T13:17:44.352Z,18.07
2018-03-15T13:18:44.324Z,18.11
2018-03-15T13:19:44.363Z,17.96
2018-03-15T13:21:05.371Z,17.36
2018-03-15T13:21:44.373Z,17.84
2018-03-15T13:22:44.372Z,17.94
2018-03-15T13:23:44.409Z,18.17
2018-03-15T13:24:44.416Z,17.95